sensor_id;sensor_type;location;lat;lon;timestamp;P1;durP1;ratioP1;P2;durP2;ratioP2
24897;SDS011;12957;49.434;8.684;2024-02-21T00:01:41;18.70;;;5.25;;
24897;SDS011;12957;49.434;8.684;2024-02-21T00:04:06;10.38;;;4.63;;
24897;SDS011;12957;49.434;8.684;2024-02-21T00:06:32;19.23;;;5.10;;
24897;SDS011;12957;49.434;8.684;2024-02-21T00:08:57;19.23;;;5.20;;
24897;SDS011;12957;49.434;8.684;2024-02-21T00:11:23;12.13;;;4.68;;
24897;SDS011;12957;49.434;8.684;2024-02-21T00:13:49;19.00;;;5.13;;
24897;SDS011;12957;49.434;8.684;2024-02-21T00:16:16;18.30;;;4.97;;
24897;SDS011;12957;49.434;8.684;2024-02-21T00:18:41;15.02;;;4.65;;
24897;SDS011;12957;49.434;8.684;2024-02-21T00:21:07;20.88;;;5.10;;
24897;SDS011;12957;49.434;8.684;2024-02-21T00:23:32;17.95;;;5.47;;
24897;SDS011;12957;49.434;8.684;2024-02-21T00:25:58;15.50;;;5.07;;
24897;SDS011;12957;49.434;8.684;2024-02-21T00:28:23;12.68;;;4.30;;
24897;SDS011;12957;49.434;8.684;2024-02-21T00:30:49;17.27;;;5.38;;
24897;SDS011;12957;49.434;8.684;2024-02-21T00:33:16;16.35;;;5.18;;
24897;SDS011;12957;49.434;8.684;2024-02-21T00:35:42;14.82;;;5.03;;
24897;SDS011;12957;49.434;8.684;2024-02-21T00:38:07;13.98;;;4.43;;
24897;SDS011;12957;49.434;8.684;2024-02-21T00:40:33;21.40;;;5.30;;
24897;SDS011;12957;49.434;8.684;2024-02-21T00:42:59;15.32;;;4.53;;
24897;SDS011;12957;49.434;8.684;2024-02-21T00:45:25;20.80;;;4.72;;
24897;SDS011;12957;49.434;8.684;2024-02-21T00:47:50;15.80;;;4.75;;
24897;SDS011;12957;49.434;8.684;2024-02-21T00:50:16;18.90;;;5.40;;
24897;SDS011;12957;49.434;8.684;2024-02-21T00:52:42;21.88;;;5.60;;
24897;SDS011;12957;49.434;8.684;2024-02-21T00:55:08;13.52;;;4.63;;
24897;SDS011;12957;49.434;8.684;2024-02-21T00:57:34;8.50;;;4.10;;
24897;SDS011;12957;49.434;8.684;2024-02-21T00:59:59;18.08;;;4.93;;
24897;SDS011;12957;49.434;8.684;2024-02-21T01:02:25;16.10;;;5.07;;
24897;SDS011;12957;49.434;8.684;2024-02-21T01:04:50;12.80;;;4.57;;
24897;SDS011;12957;49.434;8.684;2024-02-21T01:07:16;15.05;;;4.75;;
24897;SDS011;12957;49.434;8.684;2024-02-21T01:09:41;21.40;;;5.35;;
24897;SDS011;12957;49.434;8.684;2024-02-21T01:12:07;13.13;;;4.80;;
24897;SDS011;12957;49.434;8.684;2024-02-21T01:14:32;14.43;;;4.53;;
24897;SDS011;12957;49.434;8.684;2024-02-21T01:16:58;11.77;;;4.20;;
24897;SDS011;12957;49.434;8.684;2024-02-21T01:19:23;17.60;;;5.00;;
24897;SDS011;12957;49.434;8.684;2024-02-21T01:21:49;13.30;;;4.80;;
24897;SDS011;12957;49.434;8.684;2024-02-21T01:24:14;11.90;;;4.80;;
24897;SDS011;12957;49.434;8.684;2024-02-21T01:26:40;10.63;;;4.30;;
24897;SDS011;12957;49.434;8.684;2024-02-21T01:29:06;15.43;;;4.82;;
24897;SDS011;12957;49.434;8.684;2024-02-21T01:31:31;15.35;;;5.20;;
24897;SDS011;12957;49.434;8.684;2024-02-21T01:33:56;18.80;;;5.70;;
24897;SDS011;12957;49.434;8.684;2024-02-21T01:36:23;11.70;;;4.65;;
24897;SDS011;12957;49.434;8.684;2024-02-21T01:38:48;14.20;;;4.47;;
24897;SDS011;12957;49.434;8.684;2024-02-21T01:41:14;15.00;;;5.30;;
24897;SDS011;12957;49.434;8.684;2024-02-21T01:43:39;16.55;;;4.97;;
24897;SDS011;12957;49.434;8.684;2024-02-21T01:46:05;13.68;;;4.80;;
24897;SDS011;12957;49.434;8.684;2024-02-21T01:48:30;17.27;;;4.97;;
24897;SDS011;12957;49.434;8.684;2024-02-21T01:50:56;18.90;;;6.40;;
24897;SDS011;12957;49.434;8.684;2024-02-21T01:53:29;14.73;;;4.78;;
24897;SDS011;12957;49.434;8.684;2024-02-21T01:55:55;16.02;;;5.30;;
24897;SDS011;12957;49.434;8.684;2024-02-21T01:58:21;13.95;;;4.57;;
24897;SDS011;12957;49.434;8.684;2024-02-21T02:00:47;13.55;;;4.22;;
24897;SDS011;12957;49.434;8.684;2024-02-21T02:03:13;12.97;;;4.07;;
24897;SDS011;12957;49.434;8.684;2024-02-21T02:05:49;16.10;;;5.00;;
24897;SDS011;12957;49.434;8.684;2024-02-21T02:08:16;18.77;;;4.95;;
24897;SDS011;12957;49.434;8.684;2024-02-21T02:10:42;16.45;;;4.57;;
24897;SDS011;12957;49.434;8.684;2024-02-21T02:13:08;20.85;;;5.05;;
24897;SDS011;12957;49.434;8.684;2024-02-21T02:18:12;17.90;;;5.00;;
24897;SDS011;12957;49.434;8.684;2024-02-21T02:20:38;17.15;;;4.80;;
24897;SDS011;12957;49.434;8.684;2024-02-21T02:23:09;17.97;;;5.00;;
24897;SDS011;12957;49.434;8.684;2024-02-21T02:25:35;13.68;;;4.90;;
24897;SDS011;12957;49.434;8.684;2024-02-21T02:28:02;16.63;;;4.95;;
24897;SDS011;12957;49.434;8.684;2024-02-21T02:30:34;15.40;;;5.10;;
24897;SDS011;12957;49.434;8.684;2024-02-21T02:33:03;16.88;;;5.15;;
24897;SDS011;12957;49.434;8.684;2024-02-21T02:35:28;17.70;;;5.45;;
24897;SDS011;12957;49.434;8.684;2024-02-21T02:37:54;12.40;;;4.63;;
24897;SDS011;12957;49.434;8.684;2024-02-21T02:40:19;19.60;;;5.80;;
24897;SDS011;12957;49.434;8.684;2024-02-21T02:42:45;20.95;;;5.43;;
24897;SDS011;12957;49.434;8.684;2024-02-21T02:45:10;16.85;;;5.80;;
24897;SDS011;12957;49.434;8.684;2024-02-21T02:47:36;18.67;;;5.28;;
24897;SDS011;12957;49.434;8.684;2024-02-21T02:50:01;16.88;;;4.90;;
24897;SDS011;12957;49.434;8.684;2024-02-21T02:52:27;12.00;;;4.57;;
24897;SDS011;12957;49.434;8.684;2024-02-21T02:54:52;19.10;;;4.95;;
24897;SDS011;12957;49.434;8.684;2024-02-21T02:57:20;15.95;;;4.97;;
24897;SDS011;12957;49.434;8.684;2024-02-21T02:59:50;15.37;;;4.93;;
24897;SDS011;12957;49.434;8.684;2024-02-21T03:02:15;18.37;;;5.17;;
24897;SDS011;12957;49.434;8.684;2024-02-21T03:04:41;17.85;;;5.18;;
24897;SDS011;12957;49.434;8.684;2024-02-21T03:07:07;19.02;;;5.13;;
24897;SDS011;12957;49.434;8.684;2024-02-21T03:09:32;15.40;;;5.60;;
24897;SDS011;12957;49.434;8.684;2024-02-21T03:11:58;16.63;;;5.10;;
24897;SDS011;12957;49.434;8.684;2024-02-21T03:14:30;12.80;;;4.60;;
24897;SDS011;12957;49.434;8.684;2024-02-21T03:16:56;17.00;;;5.30;;
24897;SDS011;12957;49.434;8.684;2024-02-21T03:19:22;12.37;;;5.00;;
24897;SDS011;12957;49.434;8.684;2024-02-21T03:21:48;15.40;;;4.80;;
24897;SDS011;12957;49.434;8.684;2024-02-21T03:24:15;13.98;;;5.13;;
24897;SDS011;12957;49.434;8.684;2024-02-21T03:26:41;12.63;;;4.60;;
24897;SDS011;12957;49.434;8.684;2024-02-21T03:29:06;12.70;;;4.93;;
24897;SDS011;12957;49.434;8.684;2024-02-21T03:31:32;15.38;;;5.15;;
24897;SDS011;12957;49.434;8.684;2024-02-21T03:33:57;16.02;;;5.50;;
24897;SDS011;12957;49.434;8.684;2024-02-21T03:36:23;12.73;;;4.70;;
24897;SDS011;12957;49.434;8.684;2024-02-21T03:38:48;16.70;;;4.82;;
24897;SDS011;12957;49.434;8.684;2024-02-21T03:41:14;12.20;;;4.78;;
24897;SDS011;12957;49.434;8.684;2024-02-21T03:43:39;12.13;;;4.45;;
24897;SDS011;12957;49.434;8.684;2024-02-21T03:46:05;12.93;;;4.68;;
24897;SDS011;12957;49.434;8.684;2024-02-21T03:48:31;10.32;;;4.45;;
24897;SDS011;12957;49.434;8.684;2024-02-21T03:50:57;22.33;;;4.93;;
24897;SDS011;12957;49.434;8.684;2024-02-21T03:53:23;15.33;;;4.67;;
24897;SDS011;12957;49.434;8.684;2024-02-21T03:55:48;16.40;;;5.53;;
24897;SDS011;12957;49.434;8.684;2024-02-21T03:58:14;13.20;;;4.38;;
24897;SDS011;12957;49.434;8.684;2024-02-21T04:00:39;16.10;;;4.70;;
24897;SDS011;12957;49.434;8.684;2024-02-21T04:03:06;11.37;;;4.50;;
24897;SDS011;12957;49.434;8.684;2024-02-21T04:05:31;12.57;;;4.43;;
24897;SDS011;12957;49.434;8.684;2024-02-21T04:07:57;12.85;;;4.60;;
24897;SDS011;12957;49.434;8.684;2024-02-21T04:10:22;11.15;;;4.40;;
24897;SDS011;12957;49.434;8.684;2024-02-21T04:12:48;14.52;;;4.80;;
24897;SDS011;12957;49.434;8.684;2024-02-21T04:15:15;14.85;;;4.63;;
24897;SDS011;12957;49.434;8.684;2024-02-21T04:17:41;17.65;;;5.05;;
24897;SDS011;12957;49.434;8.684;2024-02-21T04:20:13;13.27;;;4.60;;
24897;SDS011;12957;49.434;8.684;2024-02-21T04:22:39;12.95;;;4.72;;
24897;SDS011;12957;49.434;8.684;2024-02-21T04:25:05;15.70;;;4.60;;
24897;SDS011;12957;49.434;8.684;2024-02-21T04:27:30;11.93;;;4.43;;
24897;SDS011;12957;49.434;8.684;2024-02-21T04:29:57;16.90;;;4.75;;
24897;SDS011;12957;49.434;8.684;2024-02-21T04:32:22;17.92;;;4.38;;
24897;SDS011;12957;49.434;8.684;2024-02-21T04:34:48;15.68;;;4.50;;
24897;SDS011;12957;49.434;8.684;2024-02-21T04:37:13;16.83;;;4.70;;
24897;SDS011;12957;49.434;8.684;2024-02-21T04:39:40;15.40;;;4.88;;
24897;SDS011;12957;49.434;8.684;2024-02-21T04:42:05;14.60;;;4.82;;
24897;SDS011;12957;49.434;8.684;2024-02-21T04:44:31;12.90;;;4.57;;
24897;SDS011;12957;49.434;8.684;2024-02-21T04:46:56;13.93;;;4.53;;
24897;SDS011;12957;49.434;8.684;2024-02-21T04:49:22;17.50;;;4.60;;
24897;SDS011;12957;49.434;8.684;2024-02-21T04:51:47;11.23;;;4.18;;
24897;SDS011;12957;49.434;8.684;2024-02-21T04:54:13;16.00;;;4.65;;
24897;SDS011;12957;49.434;8.684;2024-02-21T04:56:38;16.08;;;4.35;;
24897;SDS011;12957;49.434;8.684;2024-02-21T04:59:04;14.03;;;4.33;;
24897;SDS011;12957;49.434;8.684;2024-02-21T05:01:29;11.05;;;4.63;;
24897;SDS011;12957;49.434;8.684;2024-02-21T05:03:55;17.75;;;4.72;;
24897;SDS011;12957;49.434;8.684;2024-02-21T05:06:20;14.65;;;4.38;;
24897;SDS011;12957;49.434;8.684;2024-02-21T05:08:46;14.23;;;4.40;;
24897;SDS011;12957;49.434;8.684;2024-02-21T05:11:12;12.00;;;4.60;;
24897;SDS011;12957;49.434;8.684;2024-02-21T05:13:38;16.20;;;5.63;;
24897;SDS011;12957;49.434;8.684;2024-02-21T05:16:03;14.02;;;4.88;;
24897;SDS011;12957;49.434;8.684;2024-02-21T05:18:29;12.82;;;4.40;;
24897;SDS011;12957;49.434;8.684;2024-02-21T05:20:55;14.57;;;4.57;;
24897;SDS011;12957;49.434;8.684;2024-02-21T05:23:20;12.57;;;4.40;;
24897;SDS011;12957;49.434;8.684;2024-02-21T05:25:46;16.98;;;5.25;;
24897;SDS011;12957;49.434;8.684;2024-02-21T05:28:11;12.90;;;4.80;;
24897;SDS011;12957;49.434;8.684;2024-02-21T05:30:36;18.37;;;4.37;;
24897;SDS011;12957;49.434;8.684;2024-02-21T05:33:05;15.27;;;4.10;;
24897;SDS011;12957;49.434;8.684;2024-02-21T05:35:31;11.48;;;4.15;;
24897;SDS011;12957;49.434;8.684;2024-02-21T05:37:56;16.35;;;4.50;;
24897;SDS011;12957;49.434;8.684;2024-02-21T05:40:22;10.95;;;4.22;;
24897;SDS011;12957;49.434;8.684;2024-02-21T05:42:48;10.60;;;4.15;;
24897;SDS011;12957;49.434;8.684;2024-02-21T05:45:13;12.67;;;4.53;;
24897;SDS011;12957;49.434;8.684;2024-02-21T05:47:40;17.90;;;4.77;;
24897;SDS011;12957;49.434;8.684;2024-02-21T05:50:06;14.73;;;4.60;;
24897;SDS011;12957;49.434;8.684;2024-02-21T05:52:32;13.90;;;4.77;;
24897;SDS011;12957;49.434;8.684;2024-02-21T05:54:57;15.27;;;4.88;;
24897;SDS011;12957;49.434;8.684;2024-02-21T05:57:23;14.50;;;4.37;;
24897;SDS011;12957;49.434;8.684;2024-02-21T05:59:48;18.37;;;4.73;;
24897;SDS011;12957;49.434;8.684;2024-02-21T06:02:14;14.10;;;4.60;;
24897;SDS011;12957;49.434;8.684;2024-02-21T06:04:39;16.10;;;4.33;;
24897;SDS011;12957;49.434;8.684;2024-02-21T06:07:05;21.70;;;4.93;;
24897;SDS011;12957;49.434;8.684;2024-02-21T06:09:30;13.30;;;4.83;;
24897;SDS011;12957;49.434;8.684;2024-02-21T06:11:57;12.18;;;3.83;;
24897;SDS011;12957;49.434;8.684;2024-02-21T06:14:22;23.37;;;5.00;;
24897;SDS011;12957;49.434;8.684;2024-02-21T06:16:48;19.27;;;4.70;;
24897;SDS011;12957;49.434;8.684;2024-02-21T06:19:13;11.60;;;4.30;;
24897;SDS011;12957;49.434;8.684;2024-02-21T06:21:39;12.93;;;4.63;;
24897;SDS011;12957;49.434;8.684;2024-02-21T06:24:04;11.82;;;4.25;;
24897;SDS011;12957;49.434;8.684;2024-02-21T06:26:30;13.97;;;4.97;;
24897;SDS011;12957;49.434;8.684;2024-02-21T06:28:55;16.03;;;5.03;;
24897;SDS011;12957;49.434;8.684;2024-02-21T06:31:22;13.03;;;4.97;;
24897;SDS011;12957;49.434;8.684;2024-02-21T06:33:47;22.30;;;5.00;;
24897;SDS011;12957;49.434;8.684;2024-02-21T06:36:13;13.63;;;4.60;;
24897;SDS011;12957;49.434;8.684;2024-02-21T06:38:38;10.98;;;4.07;;
24897;SDS011;12957;49.434;8.684;2024-02-21T06:41:04;12.20;;;4.47;;
24897;SDS011;12957;49.434;8.684;2024-02-21T06:43:29;11.57;;;4.40;;
24897;SDS011;12957;49.434;8.684;2024-02-21T06:45:55;12.98;;;4.45;;
24897;SDS011;12957;49.434;8.684;2024-02-21T06:48:21;22.58;;;4.63;;
24897;SDS011;12957;49.434;8.684;2024-02-21T06:50:47;15.55;;;4.38;;
24897;SDS011;12957;49.434;8.684;2024-02-21T06:53:13;15.70;;;4.10;;
24897;SDS011;12957;49.434;8.684;2024-02-21T06:55:38;14.50;;;4.25;;
24897;SDS011;12957;49.434;8.684;2024-02-21T06:58:04;16.67;;;4.53;;
24897;SDS011;12957;49.434;8.684;2024-02-21T07:00:29;13.87;;;4.67;;
24897;SDS011;12957;49.434;8.684;2024-02-21T07:02:55;18.42;;;5.15;;
24897;SDS011;12957;49.434;8.684;2024-02-21T07:05:20;15.98;;;4.80;;
24897;SDS011;12957;49.434;8.684;2024-02-21T07:07:46;14.13;;;4.55;;
24897;SDS011;12957;49.434;8.684;2024-02-21T07:10:11;13.57;;;4.70;;
24897;SDS011;12957;49.434;8.684;2024-02-21T07:12:37;12.07;;;4.22;;
24897;SDS011;12957;49.434;8.684;2024-02-21T07:15:08;13.80;;;4.35;;
24897;SDS011;12957;49.434;8.684;2024-02-21T07:17:33;17.02;;;4.72;;
24897;SDS011;12957;49.434;8.684;2024-02-21T07:19:59;13.35;;;4.45;;
24897;SDS011;12957;49.434;8.684;2024-02-21T07:22:26;17.15;;;4.68;;
24897;SDS011;12957;49.434;8.684;2024-02-21T07:24:51;13.18;;;4.47;;
24897;SDS011;12957;49.434;8.684;2024-02-21T07:27:17;12.73;;;4.70;;
24897;SDS011;12957;49.434;8.684;2024-02-21T07:29:42;20.40;;;4.90;;
24897;SDS011;12957;49.434;8.684;2024-02-21T07:32:12;14.25;;;4.18;;
24897;SDS011;12957;49.434;8.684;2024-02-21T07:34:37;15.85;;;5.43;;
24897;SDS011;12957;49.434;8.684;2024-02-21T07:37:03;9.95;;;4.13;;
24897;SDS011;12957;49.434;8.684;2024-02-21T07:39:28;15.30;;;4.88;;
24897;SDS011;12957;49.434;8.684;2024-02-21T07:41:54;22.70;;;4.63;;
24897;SDS011;12957;49.434;8.684;2024-02-21T07:44:19;31.85;;;5.00;;
24897;SDS011;12957;49.434;8.684;2024-02-21T07:46:45;17.80;;;5.45;;
24897;SDS011;12957;49.434;8.684;2024-02-21T07:49:10;12.40;;;4.90;;
24897;SDS011;12957;49.434;8.684;2024-02-21T07:51:36;13.95;;;4.80;;
24897;SDS011;12957;49.434;8.684;2024-02-21T07:54:01;16.40;;;4.97;;
24897;SDS011;12957;49.434;8.684;2024-02-21T07:56:29;18.80;;;5.80;;
24897;SDS011;12957;49.434;8.684;2024-02-21T07:58:54;14.85;;;4.40;;
24897;SDS011;12957;49.434;8.684;2024-02-21T08:01:20;13.13;;;4.18;;
24897;SDS011;12957;49.434;8.684;2024-02-21T10:36:42;13.48;;;4.38;;
24897;SDS011;12957;49.434;8.684;2024-02-21T10:39:08;14.85;;;3.70;;
24897;SDS011;12957;49.434;8.684;2024-02-21T10:41:34;9.43;;;3.83;;
24897;SDS011;12957;49.434;8.684;2024-02-21T10:44:01;15.82;;;4.10;;
24897;SDS011;12957;49.434;8.684;2024-02-21T10:46:30;20.08;;;3.70;;
24897;SDS011;12957;49.434;8.684;2024-02-21T10:51:33;9.77;;;3.83;;
24897;SDS011;12957;49.434;8.684;2024-02-21T10:56:50;8.60;;;3.20;;
24897;SDS011;12957;49.434;8.684;2024-02-21T10:59:16;13.00;;;3.40;;
24897;SDS011;12957;49.434;8.684;2024-02-21T11:01:42;5.95;;;2.70;;
24897;SDS011;12957;49.434;8.684;2024-02-21T11:04:08;14.52;;;3.47;;
24897;SDS011;12957;49.434;8.684;2024-02-21T11:06:36;9.40;;;3.28;;
24897;SDS011;12957;49.434;8.684;2024-02-21T11:09:03;5.85;;;2.30;;
24897;SDS011;12957;49.434;8.684;2024-02-21T11:11:33;14.68;;;3.00;;
24897;SDS011;12957;49.434;8.684;2024-02-21T11:14:17;13.38;;;2.90;;
24897;SDS011;12957;49.434;8.684;2024-02-21T11:16:44;7.57;;;2.58;;
24897;SDS011;12957;49.434;8.684;2024-02-21T11:19:30;11.45;;;3.03;;
24897;SDS011;12957;49.434;8.684;2024-02-21T11:21:56;6.88;;;2.90;;
24897;SDS011;12957;49.434;8.684;2024-02-21T11:24:40;11.50;;;3.10;;
24897;SDS011;12957;49.434;8.684;2024-02-21T11:29:54;7.68;;;3.10;;
24897;SDS011;12957;49.434;8.684;2024-02-21T11:32:21;15.50;;;3.10;;
24897;SDS011;12957;49.434;8.684;2024-02-21T11:37:24;12.00;;;3.17;;
24897;SDS011;12957;49.434;8.684;2024-02-21T11:39:50;12.13;;;3.13;;
24897;SDS011;12957;49.434;8.684;2024-02-21T11:42:18;9.85;;;2.97;;
24897;SDS011;12957;49.434;8.684;2024-02-21T11:44:43;10.50;;;2.85;;
24897;SDS011;12957;49.434;8.684;2024-02-21T11:47:09;12.82;;;2.70;;
24897;SDS011;12957;49.434;8.684;2024-02-21T11:49:38;17.27;;;2.70;;
24897;SDS011;12957;49.434;8.684;2024-02-21T11:52:06;15.02;;;3.17;;
24897;SDS011;12957;49.434;8.684;2024-02-21T11:54:33;12.55;;;2.97;;
24897;SDS011;12957;49.434;8.684;2024-02-21T11:56:59;17.60;;;3.00;;
24897;SDS011;12957;49.434;8.684;2024-02-21T11:59:25;7.60;;;2.80;;
24897;SDS011;12957;49.434;8.684;2024-02-21T12:01:50;5.68;;;2.50;;
24897;SDS011;12957;49.434;8.684;2024-02-21T12:04:18;10.45;;;2.92;;
24897;SDS011;12957;49.434;8.684;2024-02-21T12:06:48;15.75;;;3.35;;
24897;SDS011;12957;49.434;8.684;2024-02-21T12:09:15;15.80;;;3.38;;
24897;SDS011;12957;49.434;8.684;2024-02-21T12:11:43;13.68;;;3.30;;
24897;SDS011;12957;49.434;8.684;2024-02-21T12:14:09;9.90;;;3.30;;
24897;SDS011;12957;49.434;8.684;2024-02-21T12:16:35;14.15;;;3.00;;
24897;SDS011;12957;49.434;8.684;2024-02-21T12:19:03;13.52;;;2.80;;
24897;SDS011;12957;49.434;8.684;2024-02-21T12:21:33;11.52;;;3.13;;
24897;SDS011;12957;49.434;8.684;2024-02-21T12:24:20;8.85;;;3.00;;
24897;SDS011;12957;49.434;8.684;2024-02-21T12:26:47;8.15;;;2.47;;
24897;SDS011;12957;49.434;8.684;2024-02-21T12:29:13;9.43;;;2.85;;
24897;SDS011;12957;49.434;8.684;2024-02-21T12:31:38;11.48;;;2.80;;
24897;SDS011;12957;49.434;8.684;2024-02-21T12:34:04;8.95;;;2.80;;
24897;SDS011;12957;49.434;8.684;2024-02-21T12:36:31;12.90;;;2.75;;
24897;SDS011;12957;49.434;8.684;2024-02-21T12:39:01;12.65;;;2.97;;
24897;SDS011;12957;49.434;8.684;2024-02-21T12:41:28;9.98;;;3.55;;
24897;SDS011;12957;49.434;8.684;2024-02-21T12:43:55;8.05;;;2.95;;
24897;SDS011;12957;49.434;8.684;2024-02-21T12:46:21;15.85;;;3.47;;
24897;SDS011;12957;49.434;8.684;2024-02-21T12:48:47;11.07;;;2.83;;
24897;SDS011;12957;49.434;8.684;2024-02-21T12:51:12;6.88;;;2.38;;
24897;SDS011;12957;49.434;8.684;2024-02-21T12:53:38;6.63;;;2.55;;
24897;SDS011;12957;49.434;8.684;2024-02-21T12:56:04;7.03;;;2.83;;
24897;SDS011;12957;49.434;8.684;2024-02-21T12:58:31;6.85;;;2.35;;
24897;SDS011;12957;49.434;8.684;2024-02-21T13:00:57;11.00;;;2.72;;
24897;SDS011;12957;49.434;8.684;2024-02-21T13:03:22;13.20;;;2.72;;
24897;SDS011;12957;49.434;8.684;2024-02-21T13:05:48;13.13;;;2.78;;
24897;SDS011;12957;49.434;8.684;2024-02-21T13:08:13;7.15;;;2.65;;
24897;SDS011;12957;49.434;8.684;2024-02-21T13:10:39;8.43;;;2.50;;
24897;SDS011;12957;49.434;8.684;2024-02-21T13:13:04;9.20;;;2.33;;
24897;SDS011;12957;49.434;8.684;2024-02-21T13:15:30;7.60;;;2.55;;
24897;SDS011;12957;49.434;8.684;2024-02-21T13:17:56;11.70;;;3.17;;
24897;SDS011;12957;49.434;8.684;2024-02-21T13:20:22;7.88;;;2.50;;
24897;SDS011;12957;49.434;8.684;2024-02-21T13:22:47;5.35;;;2.22;;
24897;SDS011;12957;49.434;8.684;2024-02-21T13:25:13;7.55;;;2.63;;
24897;SDS011;12957;49.434;8.684;2024-02-21T13:27:43;7.20;;;2.33;;
24897;SDS011;12957;49.434;8.684;2024-02-21T13:30:08;8.93;;;2.70;;
24897;SDS011;12957;49.434;8.684;2024-02-21T13:32:35;11.48;;;2.42;;
24897;SDS011;12957;49.434;8.684;2024-02-21T13:35:00;7.75;;;2.90;;
24897;SDS011;12957;49.434;8.684;2024-02-21T13:37:26;6.72;;;2.55;;
24897;SDS011;12957;49.434;8.684;2024-02-21T13:39:52;8.73;;;3.17;;
24897;SDS011;12957;49.434;8.684;2024-02-21T13:42:18;6.60;;;2.40;;
24897;SDS011;12957;49.434;8.684;2024-02-21T13:44:44;6.88;;;2.75;;
24897;SDS011;12957;49.434;8.684;2024-02-21T13:47:09;6.97;;;2.60;;
24897;SDS011;12957;49.434;8.684;2024-02-21T13:49:36;8.65;;;2.70;;
24897;SDS011;12957;49.434;8.684;2024-02-21T13:52:05;9.75;;;2.53;;
24897;SDS011;12957;49.434;8.684;2024-02-21T13:54:30;9.93;;;2.53;;
24897;SDS011;12957;49.434;8.684;2024-02-21T13:56:56;12.30;;;2.00;;
24897;SDS011;12957;49.434;8.684;2024-02-21T13:59:21;6.75;;;2.40;;
24897;SDS011;12957;49.434;8.684;2024-02-21T14:01:47;11.35;;;2.95;;
24897;SDS011;12957;49.434;8.684;2024-02-21T14:04:12;4.90;;;2.03;;
24897;SDS011;12957;49.434;8.684;2024-02-21T14:06:38;11.45;;;2.80;;
24897;SDS011;12957;49.434;8.684;2024-02-21T14:09:08;8.88;;;2.55;;
24897;SDS011;12957;49.434;8.684;2024-02-21T14:11:34;5.80;;;2.05;;
24897;SDS011;12957;49.434;8.684;2024-02-21T14:14:00;6.55;;;2.40;;
24897;SDS011;12957;49.434;8.684;2024-02-21T14:16:25;7.22;;;2.47;;
24897;SDS011;12957;49.434;8.684;2024-02-21T14:18:51;10.60;;;2.47;;
24897;SDS011;12957;49.434;8.684;2024-02-21T14:21:16;9.90;;;2.65;;
24897;SDS011;12957;49.434;8.684;2024-02-21T14:23:41;12.80;;;2.45;;
24897;SDS011;12957;49.434;8.684;2024-02-21T14:26:08;8.50;;;2.47;;
24897;SDS011;12957;49.434;8.684;2024-02-21T14:28:33;10.95;;;2.75;;
24897;SDS011;12957;49.434;8.684;2024-02-21T14:30:59;14.25;;;2.95;;
24897;SDS011;12957;49.434;8.684;2024-02-21T14:33:25;13.38;;;3.40;;
24897;SDS011;12957;49.434;8.684;2024-02-21T14:35:51;24.60;;;3.42;;
24897;SDS011;12957;49.434;8.684;2024-02-21T14:38:17;23.17;;;3.50;;
24897;SDS011;12957;49.434;8.684;2024-02-21T14:40:43;6.57;;;2.38;;
24897;SDS011;12957;49.434;8.684;2024-02-21T14:43:09;11.98;;;2.60;;
24897;SDS011;12957;49.434;8.684;2024-02-21T14:45:34;8.00;;;2.45;;
24897;SDS011;12957;49.434;8.684;2024-02-21T14:48:00;6.22;;;2.00;;
24897;SDS011;12957;49.434;8.684;2024-02-21T14:50:26;7.57;;;2.20;;
24897;SDS011;12957;49.434;8.684;2024-02-21T14:52:51;19.80;;;2.40;;
24897;SDS011;12957;49.434;8.684;2024-02-21T14:55:17;8.75;;;2.28;;
24897;SDS011;12957;49.434;8.684;2024-02-21T14:57:43;17.95;;;2.22;;
24897;SDS011;12957;49.434;8.684;2024-02-21T15:00:09;4.82;;;2.10;;
24897;SDS011;12957;49.434;8.684;2024-02-21T15:02:36;9.88;;;2.35;;
24897;SDS011;12957;49.434;8.684;2024-02-21T15:05:02;8.02;;;2.25;;
24897;SDS011;12957;49.434;8.684;2024-02-21T15:07:33;5.85;;;2.00;;
24897;SDS011;12957;49.434;8.684;2024-02-21T15:09:59;7.00;;;2.10;;
24897;SDS011;12957;49.434;8.684;2024-02-21T15:12:24;8.23;;;2.08;;
24897;SDS011;12957;49.434;8.684;2024-02-21T15:14:50;5.03;;;1.98;;
24897;SDS011;12957;49.434;8.684;2024-02-21T15:17:16;10.05;;;2.30;;
24897;SDS011;12957;49.434;8.684;2024-02-21T15:19:43;9.80;;;2.00;;
24897;SDS011;12957;49.434;8.684;2024-02-21T15:22:09;10.98;;;1.90;;
24897;SDS011;12957;49.434;8.684;2024-02-21T15:24:37;12.38;;;2.50;;
24897;SDS011;12957;49.434;8.684;2024-02-21T15:27:03;8.10;;;1.90;;
24897;SDS011;12957;49.434;8.684;2024-02-21T15:29:29;8.50;;;2.13;;
24897;SDS011;12957;49.434;8.684;2024-02-21T15:31:54;17.13;;;2.58;;
24897;SDS011;12957;49.434;8.684;2024-02-21T15:34:21;8.18;;;2.00;;
24897;SDS011;12957;49.434;8.684;2024-02-21T15:36:46;9.75;;;2.42;;
24897;SDS011;12957;49.434;8.684;2024-02-21T15:39:12;11.80;;;2.25;;
24897;SDS011;12957;49.434;8.684;2024-02-21T15:41:37;12.73;;;2.35;;
24897;SDS011;12957;49.434;8.684;2024-02-21T15:44:03;6.78;;;2.20;;
24897;SDS011;12957;49.434;8.684;2024-02-21T15:46:29;7.35;;;2.17;;
24897;SDS011;12957;49.434;8.684;2024-02-21T15:48:56;7.43;;;2.20;;
24897;SDS011;12957;49.434;8.684;2024-02-21T15:51:22;8.90;;;2.00;;
24897;SDS011;12957;49.434;8.684;2024-02-21T15:53:48;8.88;;;2.03;;
24897;SDS011;12957;49.434;8.684;2024-02-21T15:56:14;13.77;;;2.83;;
24897;SDS011;12957;49.434;8.684;2024-02-21T15:58:39;4.75;;;1.90;;
24897;SDS011;12957;49.434;8.684;2024-02-21T16:01:05;15.57;;;2.42;;
24897;SDS011;12957;49.434;8.684;2024-02-21T16:03:31;12.70;;;2.40;;
24897;SDS011;12957;49.434;8.684;2024-02-21T16:05:57;8.32;;;2.03;;
24897;SDS011;12957;49.434;8.684;2024-02-21T16:08:22;7.93;;;2.63;;
24897;SDS011;12957;49.434;8.684;2024-02-21T16:10:49;11.75;;;2.20;;
24897;SDS011;12957;49.434;8.684;2024-02-21T16:13:15;8.43;;;2.35;;
24897;SDS011;12957;49.434;8.684;2024-02-21T16:15:41;10.93;;;2.60;;
24897;SDS011;12957;49.434;8.684;2024-02-21T16:18:07;5.90;;;2.10;;
24897;SDS011;12957;49.434;8.684;2024-02-21T16:20:34;9.40;;;2.42;;
24897;SDS011;12957;49.434;8.684;2024-02-21T16:22:59;7.35;;;2.80;;
24897;SDS011;12957;49.434;8.684;2024-02-21T16:25:30;8.73;;;2.58;;
24897;SDS011;12957;49.434;8.684;2024-02-21T16:27:56;11.77;;;2.90;;
24897;SDS011;12957;49.434;8.684;2024-02-21T16:30:22;6.85;;;2.38;;
24897;SDS011;12957;49.434;8.684;2024-02-21T16:32:49;15.88;;;2.72;;
24897;SDS011;12957;49.434;8.684;2024-02-21T16:35:17;9.63;;;2.33;;
24897;SDS011;12957;49.434;8.684;2024-02-21T16:37:43;8.25;;;2.40;;
24897;SDS011;12957;49.434;8.684;2024-02-21T16:40:09;10.90;;;3.20;;
24897;SDS011;12957;49.434;8.684;2024-02-21T16:42:34;10.40;;;2.33;;
24897;SDS011;12957;49.434;8.684;2024-02-21T16:45:00;7.82;;;2.30;;
24897;SDS011;12957;49.434;8.684;2024-02-21T16:47:25;5.40;;;2.17;;
24897;SDS011;12957;49.434;8.684;2024-02-21T16:49:51;6.88;;;2.60;;
24897;SDS011;12957;49.434;8.684;2024-02-21T16:52:17;12.93;;;2.63;;
24897;SDS011;12957;49.434;8.684;2024-02-21T16:54:42;10.30;;;2.83;;
24897;SDS011;12957;49.434;8.684;2024-02-21T16:57:07;5.55;;;2.00;;
24897;SDS011;12957;49.434;8.684;2024-02-21T16:59:34;6.80;;;1.95;;
24897;SDS011;12957;49.434;8.684;2024-02-21T17:02:01;5.15;;;1.90;;
24897;SDS011;12957;49.434;8.684;2024-02-21T17:04:27;4.50;;;2.10;;
24897;SDS011;12957;49.434;8.684;2024-02-21T17:06:53;5.43;;;1.85;;
24897;SDS011;12957;49.434;8.684;2024-02-21T17:09:19;8.27;;;2.33;;
24897;SDS011;12957;49.434;8.684;2024-02-21T17:11:44;8.48;;;3.00;;
24897;SDS011;12957;49.434;8.684;2024-02-21T17:14:10;14.52;;;2.13;;
24897;SDS011;12957;49.434;8.684;2024-02-21T17:16:36;6.03;;;1.88;;
24897;SDS011;12957;49.434;8.684;2024-02-21T17:19:02;5.90;;;2.10;;